createdAt,value
2018-09-02T00:02:06.033Z,15.70
2018-09-02T00:04:36.244Z,15.60
2018-09-02T00:07:05.934Z,15.70
2018-09-02T00:09:35.237Z,15.60
2018-09-02T00:12:04.627Z,15.60
2018-09-02T00:14:34.142Z,15.60
2018-09-02T00:17:03.840Z,15.50
2018-09-02T00:19:33.217Z,15.50
2018-09-02T00:22:03.270Z,15.50
2018-09-02T00:24:32.554Z,15.40
2018-09-02T00:27:02.475Z,15.40
2018-09-02T00:29:31.957Z,15.50
2018-09-02T00:32:01.144Z,15.40
2018-09-02T00:34:30.872Z,15.40
2018-09-02T00:37:00.378Z,15.50
2018-09-02T00:39:29.807Z,15.50
2018-09-02T00:42:00.000Z,15.40
2018-09-02T00:44:29.546Z,15.30
2018-09-02T00:46:59.728Z,15.30
2018-09-02T00:49:28.171Z,15.20
2018-09-02T00:51:56.864Z,15.20
2018-09-02T00:54:25.352Z,15.10
2018-09-02T00:56:53.869Z,15.10
2018-09-02T00:59:22.285Z,15.00
2018-09-02T01:01:50.651Z,15.00
2018-09-02T01:04:19.216Z,15.00
2018-09-02T01:06:47.587Z,14.90
2018-09-02T01:09:15.976Z,15.00
2018-09-02T01:11:44.353Z,15.00
2018-09-02T01:14:12.807Z,15.00
2018-09-02T01:16:42.259Z,14.90
2018-09-02T01:19:10.726Z,14.90
2018-09-02T01:21:39.413Z,14.90
2018-09-02T01:24:07.947Z,14.90
2018-09-02T01:26:37.535Z,15.00
2018-09-02T01:29:05.977Z,15.10
2018-09-02T01:31:34.548Z,15.10
2018-09-02T01:34:03.190Z,15.00
2018-09-02T01:36:31.715Z,15.10
2018-09-02T01:39:00.992Z,15.10
2018-09-02T01:41:29.455Z,15.10
2018-09-02T01:43:57.899Z,15.20
2018-09-02T01:46:26.315Z,15.10
2018-09-02T01:48:54.764Z,15.10
2018-09-02T01:51:23.211Z,15.10
2018-09-02T01:53:51.604Z,15.20
2018-09-02T01:56:20.203Z,15.20
2018-09-02T01:58:48.656Z,15.20
2018-09-02T02:01:17.175Z,15.10
2018-09-02T02:03:46.492Z,15.20
2018-09-02T02:06:14.971Z,15.20
2018-09-02T02:08:43.371Z,15.20
2018-09-02T02:11:11.902Z,15.20
2018-09-02T02:13:40.558Z,15.30
2018-09-02T02:16:08.955Z,15.30
2018-09-02T02:18:37.326Z,15.20
2018-09-02T02:21:05.736Z,15.20
2018-09-02T02:23:35.055Z,15.10
2018-09-02T02:26:03.523Z,15.10
2018-09-02T02:28:31.980Z,15.20
2018-09-02T02:31:01.349Z,15.20
2018-09-02T02:33:29.829Z,15.10
2018-09-02T02:35:58.253Z,15.20
2018-09-02T02:38:27.062Z,15.20
2018-09-02T02:40:55.508Z,15.20
2018-09-02T02:43:24.038Z,15.20
2018-09-02T02:45:52.467Z,15.20
2018-09-02T02:48:21.491Z,15.30
2018-09-02T02:50:50.300Z,15.20
2018-09-02T02:53:18.779Z,15.30
2018-09-02T02:55:47.616Z,15.20
2018-09-02T02:58:16.130Z,15.20
2018-09-02T03:00:44.682Z,15.20
2018-09-02T03:03:13.130Z,15.30
2018-09-02T03:05:41.614Z,15.30
2018-09-02T03:08:11.580Z,15.40
2018-09-02T03:10:40.027Z,15.30
2018-09-02T03:13:09.270Z,15.20
2018-09-02T03:15:37.744Z,15.10
2018-09-02T03:18:06.203Z,15.20
2018-09-02T03:20:34.858Z,15.20
2018-09-02T03:23:04.364Z,15.20
2018-09-02T03:25:32.742Z,15.20
2018-09-02T03:28:01.232Z,15.20
2018-09-02T03:30:29.719Z,15.10
2018-09-02T03:32:58.706Z,15.00
2018-09-02T03:35:27.858Z,15.00
2018-09-02T03:37:56.259Z,15.00
2018-09-02T03:40:24.802Z,15.00
2018-09-02T03:42:53.259Z,15.00
2018-09-02T03:45:21.763Z,14.90
2018-09-02T03:47:50.349Z,15.00
2018-09-02T03:50:19.099Z,15.00
2018-09-02T03:52:47.504Z,15.00
2018-09-02T03:55:16.226Z,14.90
2018-09-02T03:57:44.655Z,15.00
2018-09-02T04:00:13.596Z,15.00
2018-09-02T04:02:42.031Z,15.00
2018-09-02T04:05:10.868Z,15.20
2018-09-02T04:07:39.230Z,15.20
2018-09-02T04:10:07.673Z,15.20
2018-09-02T04:12:36.266Z,15.20
2018-09-02T04:15:04.788Z,15.20
2018-09-02T04:17:33.249Z,15.30
2018-09-02T04:20:01.684Z,15.20
2018-09-02T04:22:30.240Z,15.10
2018-09-02T04:24:58.674Z,15.00
2018-09-02T04:27:27.127Z,15.10
2018-09-02T04:29:55.572Z,15.10
2018-09-02T04:32:24.135Z,15.00
2018-09-02T04:34:52.538Z,15.00
2018-09-02T04:37:20.932Z,15.10
2018-09-02T04:39:49.398Z,15.00
2018-09-02T04:42:17.911Z,14.90
2018-09-02T04:44:46.285Z,15.00
2018-09-02T04:47:15.980Z,15.00
2018-09-02T04:49:44.366Z,15.10
2018-09-02T04:52:12.783Z,15.10
2018-09-02T04:54:41.232Z,15.10
2018-09-02T04:57:09.634Z,15.10
2018-09-02T04:59:38.014Z,15.20
2018-09-02T05:02:07.040Z,15.20
2018-09-02T05:04:35.743Z,15.10
2018-09-02T05:07:04.220Z,15.20
2018-09-02T05:09:32.729Z,15.20
2018-09-02T05:12:01.229Z,15.10
2018-09-02T05:14:29.982Z,15.20
2018-09-02T05:16:58.441Z,15.30
2018-09-02T05:19:27.141Z,15.40
2018-09-02T05:21:55.606Z,15.40
2018-09-02T05:24:24.268Z,15.40
2018-09-02T05:26:52.666Z,15.40
2018-09-02T05:29:21.730Z,15.40
2018-09-02T05:31:50.253Z,15.30
2018-09-02T05:34:18.685Z,15.30
2018-09-02T05:36:47.229Z,15.30
2018-09-02T05:39:15.651Z,15.30
2018-09-02T05:41:44.273Z,15.30
2018-09-02T05:44:12.672Z,15.30
2018-09-02T05:46:42.082Z,15.30
2018-09-02T05:49:10.649Z,15.30
2018-09-02T05:51:39.019Z,15.40
2018-09-02T05:54:08.607Z,15.30
2018-09-02T05:56:37.601Z,15.30
2018-09-02T05:59:06.604Z,15.30
2018-09-02T06:01:35.020Z,15.30
2018-09-02T06:04:03.469Z,15.30
2018-09-02T06:06:31.910Z,15.30
2018-09-02T06:09:00.331Z,15.30
2018-09-02T06:11:28.858Z,15.30
2018-09-02T06:13:58.088Z,15.40
2018-09-02T06:16:26.527Z,15.40
2018-09-02T06:18:55.358Z,15.40
2018-09-02T06:21:23.794Z,15.40
2018-09-02T06:23:52.218Z,15.50
2018-09-02T06:26:20.575Z,15.50
2018-09-02T06:28:48.945Z,15.50
2018-09-02T06:31:17.590Z,15.50
2018-09-02T06:33:45.974Z,15.40
2018-09-02T06:36:14.482Z,15.40
2018-09-02T06:38:43.926Z,15.40
2018-09-02T06:41:12.942Z,15.40
2018-09-02T06:43:41.350Z,15.40
2018-09-02T06:46:09.787Z,15.40
2018-09-02T06:48:39.747Z,15.40
2018-09-02T06:51:08.161Z,15.40
2018-09-02T06:53:37.168Z,15.40
2018-09-02T06:56:06.631Z,15.40
2018-09-02T06:58:36.190Z,15.40
2018-09-02T07:01:05.793Z,15.50
2018-09-02T07:03:35.228Z,15.50
2018-09-02T07:06:05.355Z,15.50
2018-09-02T07:08:34.692Z,15.40
2018-09-02T07:11:03.920Z,15.40
2018-09-02T07:13:33.672Z,15.40
2018-09-02T07:16:03.432Z,15.40
2018-09-02T07:18:32.849Z,15.50
2018-09-02T07:21:02.052Z,15.60
2018-09-02T07:23:31.284Z,15.60
2018-09-02T07:26:00.776Z,15.70
2018-09-02T07:28:30.386Z,15.70
2018-09-02T07:30:59.933Z,15.70
2018-09-02T07:33:29.461Z,15.70
2018-09-02T07:35:58.889Z,15.70
2018-09-02T07:38:29.487Z,15.70
2018-09-02T07:40:59.084Z,15.80
2018-09-02T07:43:28.197Z,15.80
2018-09-02T07:45:59.085Z,15.90
2018-09-02T07:48:28.765Z,15.80
2018-09-02T07:50:58.328Z,15.80
2018-09-02T07:53:27.911Z,15.70
2018-09-02T07:55:58.013Z,15.80
2018-09-02T07:58:27.541Z,15.80
2018-09-02T08:00:57.541Z,15.70
2018-09-02T08:03:27.241Z,15.70
2018-09-02T08:05:56.944Z,15.70
2018-09-02T08:08:26.417Z,15.60
2018-09-02T08:10:54.933Z,15.60
2018-09-02T08:13:24.150Z,15.60
2018-09-02T08:15:52.667Z,15.70
2018-09-02T08:18:21.077Z,15.80
2018-09-02T08:20:49.516Z,15.80
2018-09-02T08:23:17.988Z,15.80
2018-09-02T08:25:46.406Z,15.80
2018-09-02T08:28:14.836Z,15.70
2018-09-02T08:30:44.027Z,15.80
2018-09-02T08:33:12.614Z,15.90
2018-09-02T08:35:41.083Z,15.80
2018-09-02T08:38:09.553Z,15.70
2018-09-02T08:40:37.986Z,15.70
2018-09-02T08:43:06.387Z,15.80
2018-09-02T08:45:35.699Z,15.80
2018-09-02T08:48:04.103Z,15.80
2018-09-02T08:50:32.635Z,15.80
2018-09-02T08:53:01.164Z,15.80
2018-09-02T08:55:36.107Z,15.90
2018-09-02T08:58:04.731Z,15.90
2018-09-02T09:00:33.220Z,15.90
2018-09-02T09:03:01.700Z,15.90
2018-09-02T09:05:30.094Z,15.90
2018-09-02T09:07:58.707Z,15.90
2018-09-02T09:10:27.105Z,15.90
2018-09-02T09:12:55.596Z,15.90
2018-09-02T09:15:24.210Z,16.00
2018-09-02T09:17:52.622Z,16.10
2018-09-02T09:20:21.068Z,16.00
2018-09-02T09:22:49.588Z,16.10
2018-09-02T09:25:17.937Z,16.20
2018-09-02T09:27:46.736Z,16.30
2018-09-02T09:30:15.164Z,16.20
2018-09-02T09:32:43.816Z,16.30
2018-09-02T09:35:12.239Z,16.20
2018-09-02T09:37:40.745Z,16.20
2018-09-02T09:40:09.177Z,16.20
2018-09-02T09:42:37.676Z,16.40
2018-09-02T09:45:06.903Z,16.50
2018-09-02T09:47:35.300Z,16.60
2018-09-02T09:50:03.729Z,16.40
2018-09-02T09:52:32.603Z,16.60
2018-09-02T09:55:01.072Z,16.50
2018-09-02T09:57:29.513Z,16.40
2018-09-02T09:59:57.959Z,16.50
2018-09-02T10:02:26.503Z,16.30
2018-09-02T10:04:55.137Z,16.30
2018-09-02T10:07:23.613Z,16.40
2018-09-02T10:09:52.081Z,16.60
2018-09-02T10:12:20.627Z,16.50
2018-09-02T10:14:49.977Z,16.50
2018-09-02T10:17:18.461Z,16.60
2018-09-02T10:19:47.891Z,16.70
2018-09-02T10:22:16.301Z,16.80
2018-09-02T10:24:44.993Z,16.80
2018-09-02T10:27:13.625Z,16.70
2018-09-02T10:29:42.136Z,16.70
2018-09-02T10:32:10.548Z,16.70
2018-09-02T10:34:39.020Z,16.70
2018-09-02T10:37:07.455Z,16.80
2018-09-02T10:39:35.824Z,16.80
2018-09-02T10:42:06.977Z,16.80
2018-09-02T10:44:35.414Z,16.90
2018-09-02T10:47:04.035Z,16.90
2018-09-02T10:49:32.582Z,16.90
2018-09-02T10:52:00.992Z,16.80
2018-09-02T10:54:29.686Z,16.90
2018-09-02T10:56:58.077Z,17.00
2018-09-02T10:59:26.521Z,17.00
2018-09-02T11:01:54.957Z,17.10
2018-09-02T11:04:23.738Z,17.20
2018-09-02T11:06:52.134Z,17.20
2018-09-02T11:09:20.593Z,17.30
2018-09-02T11:11:49.066Z,17.30
2018-09-02T11:14:17.582Z,17.30
2018-09-02T11:16:46.056Z,17.20
2018-09-02T11:19:14.502Z,17.30
2018-09-02T11:21:43.011Z,17.30
2018-09-02T11:24:11.425Z,17.40
2018-09-02T11:26:39.872Z,17.40
2018-09-02T11:29:08.457Z,17.30
2018-09-02T11:31:37.344Z,17.40
2018-09-02T11:34:06.951Z,17.20
2018-09-02T11:36:36.969Z,17.30
2018-09-02T11:39:07.913Z,17.30
2018-09-02T11:41:36.390Z,17.30
2018-09-02T11:44:08.099Z,17.10
2018-09-02T11:46:36.526Z,17.20
2018-09-02T11:49:05.255Z,17.10
2018-09-02T11:51:34.265Z,17.10
2018-09-02T11:54:02.764Z,17.30
2018-09-02T11:56:31.181Z,17.40
2018-09-02T11:58:59.603Z,17.20
2018-09-02T12:01:28.027Z,17.10
2018-09-02T12:03:56.470Z,17.10
2018-09-02T12:06:24.888Z,17.20
2018-09-02T12:08:53.283Z,17.40
2018-09-02T12:11:21.712Z,17.40
2018-09-02T12:13:50.217Z,17.40
2018-09-02T12:16:18.587Z,17.50
2018-09-02T12:18:47.278Z,17.20
2018-09-02T12:21:15.738Z,17.20
2018-09-02T12:23:44.186Z,17.20
2018-09-02T12:26:12.578Z,17.20
2018-09-02T12:28:41.076Z,17.30
2018-09-02T12:31:09.487Z,17.30
2018-09-02T12:33:37.902Z,17.40
2018-09-02T12:36:07.798Z,17.30
2018-09-02T12:38:36.700Z,17.30
2018-09-02T12:41:05.209Z,17.40
2018-09-02T12:43:33.598Z,17.30
2018-09-02T12:46:02.053Z,17.20
2018-09-02T12:48:30.855Z,17.30
2018-09-02T12:50:59.280Z,17.30
2018-09-02T12:53:27.709Z,17.30
2018-09-02T12:55:56.190Z,17.30
2018-09-02T12:58:24.681Z,17.50
2018-09-02T13:00:53.118Z,17.70
2018-09-02T13:03:21.547Z,17.90
2018-09-02T13:05:50.056Z,17.90
2018-09-02T13:08:18.451Z,17.80
2018-09-02T13:10:46.935Z,17.80
2018-09-02T13:13:15.405Z,17.90
2018-09-02T13:15:43.841Z,17.90
2018-09-02T13:18:12.295Z,17.80
2018-09-02T13:20:40.750Z,17.80
2018-09-02T13:23:09.147Z,17.90
2018-09-02T13:25:37.732Z,17.80
2018-09-02T13:28:06.442Z,17.60
2018-09-02T13:30:34.888Z,17.60
2018-09-02T13:33:03.358Z,17.70
2018-09-02T13:35:32.006Z,17.70
2018-09-02T13:38:00.479Z,17.50
2018-09-02T13:40:28.969Z,17.40
2018-09-02T13:42:57.679Z,17.50
2018-09-02T13:45:26.205Z,17.60
2018-09-02T13:47:54.877Z,17.60
2018-09-02T13:50:23.570Z,17.70
2018-09-02T13:52:53.254Z,17.80
2018-09-02T13:55:22.368Z,17.80
2018-09-02T13:57:50.759Z,17.80
2018-09-02T14:00:19.367Z,17.70
2018-09-02T14:02:47.824Z,17.80
2018-09-02T14:05:16.705Z,17.80
2018-09-02T14:07:45.562Z,17.90
2018-09-02T14:10:13.998Z,17.90
2018-09-02T14:12:43.349Z,17.90
2018-09-02T14:15:11.876Z,18.00
2018-09-02T14:17:40.426Z,18.00
2018-09-02T14:20:08.895Z,18.00
2018-09-02T14:22:37.397Z,18.00
2018-09-02T14:25:06.161Z,18.10
2018-09-02T14:27:34.567Z,18.10
2018-09-02T14:30:03.452Z,18.10
2018-09-02T14:32:33.478Z,18.10
2018-09-02T14:35:01.902Z,18.10
2018-09-02T14:37:30.258Z,18.10
2018-09-02T14:39:58.711Z,18.10
2018-09-02T14:42:27.095Z,18.10
2018-09-02T14:44:55.571Z,18.00
2018-09-02T14:47:24.889Z,18.10
2018-09-02T14:49:53.318Z,18.10
2018-09-02T14:52:21.718Z,18.00
2018-09-02T14:54:50.186Z,18.00
2018-09-02T14:57:18.731Z,18.00
2018-09-02T14:59:47.312Z,17.90
2018-09-02T15:02:15.731Z,17.90
2018-09-02T15:04:44.136Z,17.90
2018-09-02T15:07:12.635Z,18.00
2018-09-02T15:09:41.326Z,18.00
2018-09-02T15:12:09.998Z,18.10
2018-09-02T15:14:38.498Z,18.10
2018-09-02T15:17:07.008Z,18.10
2018-09-02T15:19:36.062Z,18.20
2018-09-02T15:22:04.504Z,18.20
2018-09-02T15:24:33.125Z,18.20
2018-09-02T15:27:02.941Z,18.20
2018-09-02T15:29:33.362Z,18.20
2018-09-02T15:32:01.904Z,18.20
2018-09-02T15:34:30.335Z,18.10
2018-09-02T15:36:58.835Z,18.20
2018-09-02T15:39:27.391Z,18.20
2018-09-02T15:41:55.750Z,18.20
2018-09-02T15:44:24.554Z,18.30
2018-09-02T15:46:52.936Z,18.30
2018-09-02T15:49:26.943Z,18.30
2018-09-02T15:51:55.426Z,18.30
2018-09-02T15:54:24.118Z,18.30
2018-09-02T15:56:54.503Z,18.30
2018-09-02T15:59:23.331Z,18.30
2018-09-02T16:01:51.792Z,18.20
2018-09-02T16:04:25.312Z,18.20
2018-09-02T16:06:55.424Z,18.20
2018-09-02T16:09:25.355Z,18.20
2018-09-02T16:12:01.105Z,18.20
2018-09-02T16:14:31.364Z,18.20
2018-09-02T16:17:10.723Z,18.20
2018-09-02T16:19:40.799Z,18.20
2018-09-02T16:22:11.009Z,18.20
2018-09-02T16:24:41.473Z,18.20
2018-09-02T16:27:11.865Z,18.20
2018-09-02T16:29:42.125Z,18.20
2018-09-02T16:32:14.072Z,18.20
2018-09-02T16:34:45.769Z,18.20
2018-09-02T16:37:20.430Z,18.20
2018-09-02T16:39:51.360Z,18.20
2018-09-02T16:42:22.301Z,18.20
2018-09-02T16:44:52.575Z,18.20
2018-09-02T16:47:21.132Z,18.20
2018-09-02T16:49:52.457Z,18.20
2018-09-02T16:52:23.470Z,18.10
2018-09-02T16:54:51.896Z,18.10
2018-09-02T16:57:20.761Z,18.10
2018-09-02T16:59:49.353Z,18.10
2018-09-02T17:02:17.775Z,18.10
2018-09-02T17:04:48.691Z,18.00
2018-09-02T17:07:17.282Z,18.00
2018-09-02T17:09:45.859Z,18.00
2018-09-02T17:12:14.330Z,18.00
2018-09-02T17:14:42.814Z,18.00
2018-09-02T17:17:11.235Z,18.00
2018-09-02T17:19:42.497Z,18.00
2018-09-02T17:22:11.045Z,18.00
2018-09-02T17:24:39.598Z,18.10
2018-09-02T17:27:08.022Z,18.10
2018-09-02T17:29:36.434Z,18.00
2018-09-02T17:32:09.473Z,18.00
2018-09-02T17:34:37.951Z,18.00
2018-09-02T17:37:06.512Z,18.00
2018-09-02T17:39:34.909Z,18.00
2018-09-02T17:42:03.394Z,18.00
2018-09-02T17:44:31.879Z,17.90
2018-09-02T17:47:00.309Z,17.90
2018-09-02T17:49:28.724Z,17.80
2018-09-02T17:51:58.220Z,17.80
2018-09-02T17:54:26.656Z,17.70
2018-09-02T17:56:55.289Z,17.70
2018-09-02T17:59:23.645Z,17.70
2018-09-02T18:01:52.850Z,17.70
2018-09-02T18:04:21.262Z,17.70
2018-09-02T18:06:50.705Z,17.80
2018-09-02T18:09:19.177Z,17.80
2018-09-02T18:11:47.612Z,17.80
2018-09-02T18:14:16.019Z,17.80
2018-09-02T18:16:44.512Z,17.80
2018-09-02T18:19:13.056Z,17.80
2018-09-02T18:21:41.585Z,17.80
2018-09-02T18:24:10.227Z,17.80
2018-09-02T18:26:38.685Z,17.70
2018-09-02T18:29:07.492Z,17.70
2018-09-02T18:31:36.076Z,17.70
2018-09-02T18:34:04.511Z,17.70
2018-09-02T18:36:33.708Z,17.70
2018-09-02T18:39:02.208Z,17.70
2018-09-02T18:41:30.866Z,17.70
2018-09-02T18:43:59.333Z,17.70
2018-09-02T18:46:27.767Z,17.70
2018-09-02T18:48:56.240Z,17.70
2018-09-02T18:51:24.698Z,17.70
2018-09-02T18:53:53.343Z,17.70
2018-09-02T18:56:21.807Z,17.70
2018-09-02T18:58:50.399Z,17.70
2018-09-02T19:01:18.926Z,17.70
2018-09-02T19:03:47.323Z,17.80
2018-09-02T19:06:15.785Z,17.70
2018-09-02T19:08:44.976Z,17.70
2018-09-02T19:11:13.380Z,17.70
2018-09-02T19:13:41.803Z,17.70
2018-09-02T19:16:10.222Z,17.70
2018-09-02T19:18:38.623Z,17.70
2018-09-02T19:21:07.247Z,17.70
2018-09-02T19:23:35.741Z,17.70
2018-09-02T19:26:04.071Z,17.70
2018-09-02T19:28:32.603Z,17.70
2018-09-02T19:31:01.090Z,17.70
2018-09-02T19:33:29.649Z,17.60
2018-09-02T19:35:58.099Z,17.60
2018-09-02T19:38:26.537Z,17.60
2018-09-02T19:40:54.933Z,17.60
2018-09-02T19:43:23.352Z,17.60
2018-09-02T19:45:51.772Z,17.60
2018-09-02T19:48:21.160Z,17.60
2018-09-02T19:50:49.575Z,17.60
2018-09-02T19:53:18.051Z,17.60
2018-09-02T19:55:46.515Z,17.70
2018-09-02T19:58:15.744Z,17.60
2018-09-02T20:00:44.218Z,17.70
2018-09-02T20:03:12.711Z,17.60
2018-09-02T20:05:41.413Z,17.60
2018-09-02T20:08:09.778Z,17.60
2018-09-02T20:10:38.201Z,17.60
2018-09-02T20:13:06.607Z,17.60
2018-09-02T20:15:35.139Z,17.60
2018-09-02T20:18:03.619Z,17.60
2018-09-02T20:20:32.066Z,17.50
2018-09-02T20:23:00.610Z,17.50
2018-09-02T20:25:29.738Z,17.50
2018-09-02T20:27:58.138Z,17.50
2018-09-02T20:30:26.565Z,17.50
2018-09-02T20:32:54.959Z,17.50
2018-09-02T20:35:23.403Z,17.50
2018-09-02T20:37:51.854Z,17.40
2018-09-02T20:40:20.333Z,17.40
2018-09-02T20:42:48.854Z,17.40
2018-09-02T20:45:17.283Z,17.40
2018-09-02T20:47:45.673Z,17.50
2018-09-02T20:50:14.103Z,17.50
2018-09-02T20:52:42.899Z,17.50
2018-09-02T20:55:11.307Z,17.50
2018-09-02T20:57:39.758Z,17.40
2018-09-02T21:00:08.242Z,17.50
2018-09-02T21:02:36.783Z,17.50
2018-09-02T21:05:05.335Z,17.50
2018-09-02T21:07:33.750Z,17.40
2018-09-02T21:10:02.209Z,17.40
2018-09-02T21:12:30.713Z,17.40
2018-09-02T21:14:59.155Z,17.30
2018-09-02T21:17:27.736Z,17.30
2018-09-02T21:19:56.860Z,17.30
2018-09-02T21:22:25.317Z,17.30
2018-09-02T21:24:54.895Z,17.20
2018-09-02T21:27:23.594Z,17.20
2018-09-02T21:29:52.103Z,17.30
2018-09-02T21:32:20.638Z,17.30
2018-09-02T21:34:49.595Z,17.30
2018-09-02T21:37:18.532Z,17.30
2018-09-02T21:39:47.026Z,17.30
2018-09-02T21:42:15.515Z,17.20
2018-09-02T21:44:43.949Z,17.10
2018-09-02T21:47:12.392Z,17.10
2018-09-02T21:49:41.516Z,17.20
2018-09-02T21:52:09.961Z,17.10
2018-09-02T21:54:38.394Z,17.20
2018-09-02T21:57:06.823Z,17.10
2018-09-02T21:59:36.635Z,17.00
2018-09-02T22:02:05.222Z,17.00
2018-09-02T22:04:33.716Z,17.00
2018-09-02T22:07:02.122Z,17.00
2018-09-02T22:09:30.506Z,17.00
2018-09-02T22:11:58.850Z,17.00
2018-09-02T22:14:27.540Z,17.00
2018-09-02T22:16:55.965Z,17.00
2018-09-02T22:19:24.898Z,17.00
2018-09-02T22:21:53.376Z,17.00
2018-09-02T22:24:21.832Z,17.00
2018-09-02T22:26:50.630Z,16.90
2018-09-02T22:29:19.122Z,16.90
2018-09-02T22:31:48.179Z,16.90
2018-09-02T22:34:16.526Z,16.90
2018-09-02T22:36:44.932Z,16.90
2018-09-02T22:39:13.349Z,16.90
2018-09-02T22:41:41.941Z,16.90
2018-09-02T22:44:10.474Z,16.90
2018-09-02T22:46:38.875Z,16.90
2018-09-02T22:49:07.353Z,16.90
2018-09-02T22:51:35.843Z,16.90
2018-09-02T22:54:05.037Z,16.90
2018-09-02T22:56:33.520Z,16.90
2018-09-02T22:59:02.083Z,16.90
2018-09-02T23:01:30.637Z,16.80
2018-09-02T23:03:59.052Z,16.80
2018-09-02T23:06:27.711Z,16.80
2018-09-02T23:08:56.083Z,16.80
2018-09-02T23:11:24.664Z,16.80
2018-09-02T23:13:53.069Z,16.80
2018-09-02T23:16:21.593Z,16.90
2018-09-02T23:18:50.289Z,16.90
2018-09-02T23:21:18.869Z,17.00
2018-09-02T23:23:48.312Z,17.10
2018-09-02T23:26:16.710Z,17.10
2018-09-02T23:28:45.115Z,17.10
2018-09-02T23:31:14.516Z,17.20
2018-09-02T23:33:43.040Z,17.20
2018-09-02T23:36:11.608Z,17.20
2018-09-02T23:38:40.000Z,17.10
2018-09-02T23:41:08.431Z,17.20
2018-09-02T23:43:37.055Z,17.10
2018-09-02T23:46:06.668Z,17.10
2018-09-02T23:48:35.099Z,17.10
2018-09-02T23:51:03.765Z,17.20
2018-09-02T23:53:32.311Z,17.20
2018-09-02T23:56:01.739Z,17.10
2018-09-02T23:58:31.103Z,17.00
